createdAt,value
2019-03-11T00:00:37.045Z,2.70
2019-03-11T00:03:06.682Z,2.80
2019-03-11T00:05:36.270Z,2.70
2019-03-11T00:08:06.721Z,2.80
2019-03-11T00:10:36.249Z,2.70
2019-03-11T00:13:05.794Z,2.70
2019-03-11T00:15:35.293Z,2.70
2019-03-11T00:18:04.837Z,2.70
2019-03-11T00:20:34.403Z,2.80
2019-03-11T00:23:03.945Z,2.70
2019-03-11T00:25:33.465Z,2.60
2019-03-11T00:28:03.000Z,2.70
2019-03-11T00:30:32.522Z,2.50
2019-03-11T00:33:02.063Z,2.50
2019-03-11T00:35:31.619Z,2.60
2019-03-11T00:38:01.146Z,2.60
2019-03-11T00:40:30.725Z,2.50
2019-03-11T00:43:00.221Z,2.70
2019-03-11T00:45:29.748Z,2.70
2019-03-11T00:48:02.419Z,2.60
2019-03-11T00:50:30.494Z,2.60
2019-03-11T00:53:00.099Z,2.70
2019-03-11T00:55:29.637Z,2.60
2019-03-11T00:57:59.199Z,2.60
2019-03-11T01:00:31.188Z,2.70
2019-03-11T01:03:00.747Z,2.70
2019-03-11T01:05:30.269Z,2.70
2019-03-11T01:07:59.786Z,2.70
2019-03-11T01:10:29.270Z,2.80
2019-03-11T01:12:58.846Z,2.80
2019-03-11T01:15:28.408Z,2.80
2019-03-11T01:17:58.014Z,2.80
2019-03-11T01:20:27.905Z,2.70
2019-03-11T01:22:57.402Z,2.80
2019-03-11T01:25:26.928Z,2.80
2019-03-11T01:27:56.402Z,2.70
2019-03-11T01:30:25.928Z,2.70
2019-03-11T01:32:55.416Z,2.80
2019-03-11T01:35:25.011Z,2.80
2019-03-11T01:37:54.509Z,2.80
2019-03-11T01:40:24.062Z,2.80
2019-03-11T01:42:53.553Z,2.80
2019-03-11T01:45:23.082Z,2.90
2019-03-11T01:47:52.578Z,2.90
2019-03-11T01:50:22.106Z,2.90
2019-03-11T01:52:51.633Z,3.00
2019-03-11T01:55:21.433Z,3.00
2019-03-11T01:57:50.960Z,3.00
2019-03-11T02:00:20.589Z,3.00
2019-03-11T02:02:50.142Z,3.00
2019-03-11T02:05:19.682Z,3.10
2019-03-11T02:07:49.266Z,3.10
2019-03-11T02:10:19.103Z,3.10
2019-03-11T02:12:48.540Z,3.10
2019-03-11T02:15:18.192Z,3.10
2019-03-11T02:17:47.853Z,3.20
2019-03-11T02:20:17.591Z,3.10
2019-03-11T02:22:47.153Z,3.20
2019-03-11T02:25:16.862Z,3.10
2019-03-11T02:27:46.374Z,3.10
2019-03-11T02:30:16.272Z,3.10
2019-03-11T02:32:45.886Z,3.10
2019-03-11T02:35:25.149Z,3.10
2019-03-11T02:37:54.694Z,3.10
2019-03-11T02:40:24.183Z,3.00
2019-03-11T02:42:53.695Z,3.00
2019-03-11T02:45:23.168Z,3.00
2019-03-11T02:47:52.733Z,3.00
2019-03-11T02:50:22.271Z,3.00
2019-03-11T02:52:51.815Z,2.90
2019-03-11T02:55:21.366Z,3.00
2019-03-11T02:57:50.897Z,3.00
2019-03-11T03:00:20.875Z,3.00
2019-03-11T03:03:08.084Z,2.90
2019-03-11T03:05:41.447Z,2.90
2019-03-11T03:08:10.952Z,2.90
2019-03-11T03:10:40.561Z,2.90
2019-03-11T03:13:10.079Z,2.90
2019-03-11T03:15:39.595Z,2.90
2019-03-11T03:18:09.137Z,2.80
2019-03-11T03:20:38.651Z,2.90
2019-03-11T03:23:08.194Z,2.90
2019-03-11T03:25:37.711Z,2.90
2019-03-11T03:28:07.434Z,2.90
2019-03-11T03:30:37.198Z,2.90
2019-03-11T03:33:06.743Z,2.90
2019-03-11T03:35:36.204Z,2.90
2019-03-11T03:38:05.752Z,3.00
2019-03-11T03:40:35.247Z,3.00
2019-03-11T03:43:04.905Z,3.00
2019-03-11T03:45:40.591Z,3.00
2019-03-11T03:48:10.303Z,3.00
2019-03-11T03:50:40.402Z,3.00
2019-03-11T03:53:10.305Z,3.00
2019-03-11T03:55:39.855Z,3.00
2019-03-11T03:58:09.348Z,3.10
2019-03-11T04:00:38.894Z,3.10
2019-03-11T04:03:08.480Z,3.10
2019-03-11T04:05:38.033Z,3.10
2019-03-11T04:08:07.628Z,3.10
2019-03-11T04:10:37.233Z,3.10
2019-03-11T04:13:06.755Z,3.10
2019-03-11T04:15:36.450Z,3.10
2019-03-11T04:18:09.292Z,3.00
2019-03-11T04:20:39.107Z,3.10
2019-03-11T04:23:08.786Z,3.10
2019-03-11T04:25:38.322Z,3.10
2019-03-11T04:28:07.947Z,3.10
2019-03-11T04:30:37.559Z,3.10
2019-03-11T04:33:07.207Z,3.20
2019-03-11T04:35:36.685Z,3.20
2019-03-11T04:38:06.243Z,3.20
2019-03-11T04:40:35.743Z,3.20
2019-03-11T04:43:05.289Z,3.20
2019-03-11T04:45:34.910Z,3.20
2019-03-11T04:48:04.454Z,3.20
2019-03-11T04:50:33.973Z,3.20
2019-03-11T04:53:03.499Z,3.30
2019-03-11T04:55:32.995Z,3.30
2019-03-11T04:58:02.563Z,3.30
2019-03-11T05:00:32.104Z,3.30
2019-03-11T05:03:01.669Z,3.20
2019-03-11T05:05:31.274Z,3.20
2019-03-11T05:08:00.915Z,3.20
2019-03-11T05:10:30.392Z,3.20
2019-03-11T05:12:59.920Z,3.20
2019-03-11T05:15:29.473Z,3.20
2019-03-11T05:17:59.001Z,3.20
2019-03-11T05:20:28.598Z,3.10
2019-03-11T05:22:58.175Z,3.10
2019-03-11T05:25:27.690Z,3.20
2019-03-11T05:27:57.259Z,3.10
2019-03-11T05:30:26.948Z,3.10
2019-03-11T05:32:57.205Z,3.00
2019-03-11T05:35:26.670Z,3.00
2019-03-11T05:37:56.198Z,3.10
2019-03-11T05:40:26.066Z,3.00
2019-03-11T05:42:56.239Z,3.00
2019-03-11T05:45:25.774Z,3.00
2019-03-11T05:47:55.235Z,3.10
2019-03-11T05:50:24.927Z,3.00
2019-03-11T05:52:54.427Z,3.00
2019-03-11T05:55:23.941Z,3.10
2019-03-11T05:57:53.458Z,2.90
2019-03-11T06:00:26.431Z,3.00
2019-03-11T06:02:55.982Z,2.90
2019-03-11T06:05:25.512Z,2.90
2019-03-11T06:07:55.031Z,2.90
2019-03-11T06:10:24.619Z,2.90
2019-03-11T06:12:55.005Z,2.90
2019-03-11T06:15:24.558Z,2.90
2019-03-11T06:17:54.095Z,2.80
2019-03-11T06:20:40.881Z,2.90
2019-03-11T06:23:11.169Z,2.90
2019-03-11T06:25:40.717Z,3.00
2019-03-11T06:28:10.249Z,3.00
2019-03-11T06:30:39.746Z,3.00
2019-03-11T06:33:09.839Z,2.90
2019-03-11T06:35:40.520Z,2.90
2019-03-11T06:38:10.404Z,2.90
2019-03-11T06:40:40.047Z,3.00
2019-03-11T06:43:09.509Z,3.00
2019-03-11T06:45:40.342Z,3.00
2019-03-11T06:48:09.911Z,3.00
2019-03-11T06:50:39.617Z,3.10
2019-03-11T06:53:09.203Z,3.10
2019-03-11T06:55:38.778Z,3.20
2019-03-11T06:58:08.255Z,3.20
2019-03-11T07:00:37.814Z,3.30
2019-03-11T07:03:07.279Z,3.40
2019-03-11T07:05:36.835Z,3.50
2019-03-11T07:08:06.405Z,3.50
2019-03-11T07:10:36.298Z,3.60
2019-03-11T07:13:05.770Z,3.70
2019-03-11T07:15:35.278Z,3.70
2019-03-11T07:18:06.683Z,4.00
2019-03-11T07:20:35.887Z,4.20
2019-03-11T07:23:05.350Z,4.10
2019-03-11T07:25:34.870Z,4.20
2019-03-11T07:28:05.170Z,4.30
2019-03-11T07:30:34.691Z,4.30
2019-03-11T07:33:06.888Z,4.20
2019-03-11T07:35:35.402Z,4.40
2019-03-11T07:38:04.920Z,4.40
2019-03-11T07:40:34.466Z,4.40
2019-03-11T07:43:03.931Z,4.40
2019-03-11T07:45:33.459Z,4.40
2019-03-11T07:48:02.979Z,4.50
2019-03-11T07:50:32.518Z,4.60
2019-03-11T07:53:02.010Z,4.60
2019-03-11T07:55:33.574Z,4.70
2019-03-11T07:58:03.130Z,4.70
2019-03-11T08:00:32.616Z,4.80
2019-03-11T08:03:02.141Z,4.80
2019-03-11T08:05:31.643Z,4.90
2019-03-11T08:08:01.234Z,4.90
2019-03-11T08:10:30.870Z,4.90
2019-03-11T08:13:00.329Z,4.80
2019-03-11T08:15:29.883Z,4.80
2019-03-11T08:17:59.352Z,4.80
2019-03-11T08:20:28.863Z,4.90
2019-03-11T08:22:58.437Z,4.90
2019-03-11T08:25:27.903Z,4.90
2019-03-11T08:27:57.419Z,4.90
2019-03-11T08:30:26.988Z,4.90
2019-03-11T08:32:56.551Z,4.90
2019-03-11T08:35:26.055Z,4.80
2019-03-11T08:37:55.564Z,4.90
2019-03-11T08:40:25.122Z,4.80
2019-03-11T08:42:54.672Z,4.90
2019-03-11T08:45:24.499Z,4.80
2019-03-11T08:47:55.401Z,4.80
2019-03-11T08:50:24.952Z,4.80
2019-03-11T08:52:54.967Z,4.70
2019-03-11T08:55:24.687Z,4.70
2019-03-11T08:57:55.849Z,4.70
2019-03-11T09:00:26.483Z,4.70
2019-03-11T09:02:57.074Z,4.70
2019-03-11T09:05:26.659Z,4.70
2019-03-11T09:07:56.200Z,4.70
2019-03-11T09:10:25.794Z,4.80
2019-03-11T09:12:55.301Z,4.80
2019-03-11T09:15:24.901Z,4.80
2019-03-11T09:17:54.493Z,4.80
2019-03-11T09:20:23.973Z,4.90
2019-03-11T09:22:53.506Z,4.90
2019-03-11T09:25:23.034Z,4.90
2019-03-11T09:27:52.579Z,4.90
2019-03-11T09:30:22.162Z,4.90
2019-03-11T09:32:51.693Z,5.10
2019-03-11T09:35:21.165Z,5.20
2019-03-11T09:37:50.751Z,5.30
2019-03-11T09:40:20.269Z,5.40
2019-03-11T09:42:49.955Z,5.50
2019-03-11T09:45:19.533Z,5.60
2019-03-11T09:47:49.059Z,5.60
2019-03-11T09:50:18.650Z,5.60
2019-03-11T09:52:48.238Z,5.60
2019-03-11T09:55:17.747Z,5.60
2019-03-11T09:57:47.252Z,5.60
2019-03-11T10:00:18.917Z,5.50
2019-03-11T10:02:52.804Z,5.50
2019-03-11T10:05:19.543Z,5.50
2019-03-11T10:07:49.175Z,5.50
2019-03-11T10:10:18.742Z,5.40
2019-03-11T10:12:49.804Z,5.40
2019-03-11T10:15:19.591Z,5.30
2019-03-11T10:17:49.082Z,5.50
2019-03-11T10:20:18.748Z,5.30
2019-03-11T10:22:49.031Z,5.30
2019-03-11T10:25:18.903Z,5.40
2019-03-11T10:27:48.453Z,5.40
2019-03-11T10:30:18.403Z,5.40
2019-03-11T10:32:47.885Z,5.40
2019-03-11T10:35:31.480Z,5.40
2019-03-11T10:37:48.615Z,5.50
2019-03-11T10:40:19.701Z,5.50
2019-03-11T10:42:50.451Z,5.50
2019-03-11T10:45:31.396Z,5.60
2019-03-11T10:47:54.177Z,5.60
2019-03-11T10:50:23.765Z,5.80
2019-03-11T10:52:53.789Z,5.80
2019-03-11T10:55:23.791Z,5.90
2019-03-11T10:57:53.511Z,5.70
2019-03-11T11:00:25.127Z,5.80
2019-03-11T11:02:55.629Z,5.90
2019-03-11T11:05:25.533Z,5.70
2019-03-11T11:07:56.039Z,5.80
2019-03-11T11:10:26.114Z,5.70
2019-03-11T11:12:55.614Z,5.70
2019-03-11T11:15:25.331Z,5.80
2019-03-11T11:17:54.984Z,5.80
2019-03-11T11:20:25.488Z,5.70
2019-03-11T11:22:55.850Z,5.80
2019-03-11T11:25:25.674Z,5.80
2019-03-11T11:27:55.930Z,6.10
2019-03-11T11:30:27.055Z,5.90
2019-03-11T11:32:57.536Z,5.90
2019-03-11T11:35:27.471Z,6.10
2019-03-11T11:37:57.026Z,6.20
2019-03-11T11:40:26.688Z,6.20
2019-03-11T11:42:56.903Z,6.10
2019-03-11T11:45:26.618Z,6.10
2019-03-11T11:47:56.276Z,6.10
2019-03-11T11:50:26.271Z,5.90
2019-03-11T11:52:56.034Z,6.00
2019-03-11T11:55:25.651Z,6.00
2019-03-11T11:57:55.138Z,6.10
2019-03-11T12:00:27.686Z,6.00
2019-03-11T12:02:57.195Z,6.00
2019-03-11T12:05:26.755Z,6.20
2019-03-11T12:07:56.807Z,6.20
2019-03-11T12:10:27.015Z,6.20
2019-03-11T12:12:56.690Z,6.20
2019-03-11T12:15:26.228Z,6.30
2019-03-11T12:17:55.754Z,6.50
2019-03-11T12:20:25.332Z,6.50
2019-03-11T12:22:54.945Z,6.50
2019-03-11T12:25:24.488Z,6.50
2019-03-11T12:27:54.727Z,6.50
2019-03-11T12:30:25.603Z,6.50
2019-03-11T12:32:55.156Z,6.60
2019-03-11T12:35:24.967Z,6.80
2019-03-11T12:37:54.575Z,6.80
2019-03-11T12:40:24.323Z,6.90
2019-03-11T12:42:53.977Z,6.90
2019-03-11T12:45:24.411Z,6.90
2019-03-11T12:47:54.147Z,6.80
2019-03-11T12:50:24.570Z,6.90
2019-03-11T12:52:54.193Z,7.00
2019-03-11T12:55:23.723Z,7.00
2019-03-11T12:57:53.231Z,7.00
2019-03-11T13:00:22.869Z,7.00
2019-03-11T13:02:52.387Z,7.10
2019-03-11T13:05:22.575Z,7.10
2019-03-11T13:07:52.119Z,7.10
2019-03-11T13:10:21.787Z,7.00
2019-03-11T13:12:51.386Z,7.00
2019-03-11T13:15:21.403Z,6.90
2019-03-11T13:17:50.919Z,7.00
2019-03-11T13:20:30.033Z,7.10
2019-03-11T13:22:59.603Z,7.00
2019-03-11T13:25:29.135Z,6.90
2019-03-11T13:27:58.803Z,7.00
2019-03-11T13:30:28.310Z,7.00
2019-03-11T13:32:57.844Z,7.00
2019-03-11T13:35:30.627Z,7.00
2019-03-11T13:38:00.184Z,7.00
2019-03-11T13:40:29.711Z,7.00
2019-03-11T13:42:59.370Z,7.00
2019-03-11T13:45:28.877Z,7.00
2019-03-11T13:47:59.061Z,6.90
2019-03-11T13:50:28.741Z,6.90
2019-03-11T13:52:59.208Z,6.90
2019-03-11T13:55:28.717Z,6.90
2019-03-11T13:58:00.054Z,6.80
2019-03-11T14:00:29.549Z,6.80
2019-03-11T14:02:59.065Z,6.80
2019-03-11T14:05:28.643Z,6.90
2019-03-11T14:07:58.126Z,6.90
2019-03-11T14:10:27.630Z,6.90
2019-03-11T14:12:57.103Z,6.80
2019-03-11T14:15:26.621Z,7.00
2019-03-11T14:17:56.111Z,6.90
2019-03-11T14:20:25.615Z,6.90
2019-03-11T14:22:55.094Z,6.90
2019-03-11T14:25:24.575Z,6.50
2019-03-11T14:27:54.048Z,6.40
2019-03-11T14:30:23.565Z,6.10
2019-03-11T14:32:53.074Z,5.90
2019-03-11T14:35:22.562Z,5.70
2019-03-11T14:37:54.895Z,5.80
2019-03-11T14:40:24.539Z,6.10
2019-03-11T14:42:53.990Z,5.80
2019-03-11T14:45:23.555Z,5.90
2019-03-11T14:47:53.056Z,5.70
2019-03-11T14:50:22.590Z,5.70
2019-03-11T14:52:52.112Z,5.80
2019-03-11T14:55:21.690Z,5.40
2019-03-11T14:57:51.359Z,5.50
2019-03-11T15:00:21.455Z,5.60
2019-03-11T15:02:51.109Z,5.30
2019-03-11T15:05:20.628Z,5.30
2019-03-11T15:07:50.129Z,5.00
2019-03-11T15:10:19.795Z,5.00
2019-03-11T15:12:49.642Z,5.10
2019-03-11T15:15:19.700Z,5.20
2019-03-11T15:17:50.068Z,5.00
2019-03-11T15:20:19.290Z,5.00
2019-03-11T15:22:49.030Z,4.80
2019-03-11T15:25:19.414Z,4.70
2019-03-11T15:27:49.008Z,4.90
2019-03-11T15:30:18.589Z,5.10
2019-03-11T15:32:48.051Z,5.20
2019-03-11T15:35:17.695Z,5.10
2019-03-11T15:37:47.410Z,5.00
2019-03-11T15:40:16.930Z,5.00
2019-03-11T15:42:46.517Z,5.00
2019-03-11T15:45:16.238Z,5.00
2019-03-11T15:47:45.966Z,5.10
2019-03-11T15:50:17.828Z,5.10
2019-03-11T15:52:48.331Z,5.00
2019-03-11T15:55:18.120Z,4.90
2019-03-11T15:57:50.392Z,5.10
2019-03-11T16:00:20.946Z,5.00
2019-03-11T16:02:50.491Z,5.10
2019-03-11T16:05:20.395Z,5.10
2019-03-11T16:07:50.255Z,5.10
2019-03-11T16:10:19.833Z,5.10
2019-03-11T16:12:49.652Z,5.10
2019-03-11T16:15:20.051Z,5.10
2019-03-11T16:17:49.578Z,4.90
2019-03-11T16:20:21.876Z,5.00
2019-03-11T16:22:51.547Z,5.00
2019-03-11T16:25:21.054Z,5.00
2019-03-11T16:27:50.640Z,4.80
2019-03-11T16:30:20.768Z,4.70
2019-03-11T16:32:59.438Z,4.90
2019-03-11T16:35:22.119Z,4.90
2019-03-11T16:37:52.450Z,5.00
2019-03-11T16:40:21.969Z,4.90
2019-03-11T16:42:51.471Z,4.90
2019-03-11T16:45:21.900Z,4.90
2019-03-11T16:47:51.468Z,4.90
2019-03-11T16:50:21.074Z,4.70
2019-03-11T16:52:50.567Z,4.80
2019-03-11T16:55:23.303Z,4.80
2019-03-11T16:57:53.835Z,4.80
2019-03-11T17:00:29.044Z,4.80
2019-03-11T17:02:58.573Z,4.80
2019-03-11T17:05:28.355Z,5.00
2019-03-11T17:07:57.907Z,5.10
2019-03-11T17:10:28.339Z,5.10
2019-03-11T17:12:57.914Z,5.20
2019-03-11T17:15:27.555Z,5.10
2019-03-11T17:17:57.103Z,5.20
2019-03-11T17:20:26.612Z,5.00
2019-03-11T17:22:59.161Z,5.10
2019-03-11T17:25:28.622Z,5.10
2019-03-11T17:27:58.175Z,5.00
2019-03-11T17:30:27.811Z,5.20
2019-03-11T17:32:58.176Z,5.20
2019-03-11T17:35:27.646Z,5.30
2019-03-11T17:37:57.163Z,5.10
2019-03-11T17:40:26.838Z,5.10
2019-03-11T17:42:56.381Z,5.20
2019-03-11T17:45:25.831Z,5.30
2019-03-11T17:47:55.486Z,5.30
2019-03-11T17:50:27.934Z,5.20
2019-03-11T17:52:57.459Z,5.30
2019-03-11T17:55:26.949Z,5.40
2019-03-11T17:57:56.463Z,5.30
2019-03-11T18:00:27.712Z,5.40
2019-03-11T18:02:57.250Z,5.40
2019-03-11T18:05:26.802Z,5.40
2019-03-11T18:07:56.378Z,5.40
2019-03-11T18:10:25.922Z,5.40
2019-03-11T18:12:58.858Z,5.50
2019-03-11T18:15:28.406Z,5.50
2019-03-11T18:17:57.910Z,5.40
2019-03-11T18:20:27.575Z,5.40
2019-03-11T18:22:57.208Z,5.40
2019-03-11T18:25:26.781Z,5.30
2019-03-11T18:27:56.373Z,5.30
2019-03-11T18:30:25.986Z,5.40
2019-03-11T18:32:55.523Z,5.40
2019-03-11T18:35:27.591Z,5.40
2019-03-11T18:38:03.950Z,5.40
2019-03-11T18:40:28.602Z,5.40
2019-03-11T18:42:58.243Z,5.40
2019-03-11T18:45:27.794Z,5.30
2019-03-11T18:47:57.289Z,5.30
2019-03-11T18:50:27.094Z,5.40
2019-03-11T18:52:56.720Z,5.30
2019-03-11T18:55:26.383Z,5.30
2019-03-11T18:57:56.097Z,5.40
2019-03-11T19:00:25.978Z,5.40
2019-03-11T19:02:55.564Z,5.30
2019-03-11T19:05:25.129Z,5.20
2019-03-11T19:07:55.365Z,5.10
2019-03-11T19:10:25.326Z,5.10
2019-03-11T19:12:54.795Z,5.10
2019-03-11T19:15:27.476Z,5.00
2019-03-11T19:17:56.994Z,5.00
2019-03-11T19:20:26.699Z,4.90
2019-03-11T19:22:56.414Z,5.00
2019-03-11T19:25:26.047Z,5.00
2019-03-11T19:27:55.694Z,4.90
2019-03-11T19:30:25.339Z,5.00
2019-03-11T19:32:55.182Z,4.90
2019-03-11T19:35:25.057Z,4.80
2019-03-11T19:37:55.514Z,4.80
2019-03-11T19:40:25.008Z,4.90
2019-03-11T19:42:54.821Z,4.80
2019-03-11T19:45:24.536Z,4.80
2019-03-11T19:47:54.059Z,4.80
2019-03-11T19:50:23.795Z,4.70
2019-03-11T19:52:59.136Z,4.70
2019-03-11T19:55:24.675Z,4.60
2019-03-11T19:57:54.283Z,4.70
2019-03-11T20:00:24.020Z,4.80
2019-03-11T20:02:55.140Z,4.70
2019-03-11T20:05:25.268Z,4.60
2019-03-11T20:07:54.727Z,4.50
2019-03-11T20:10:24.683Z,4.50
2019-03-11T20:12:54.246Z,4.60
2019-03-11T20:15:23.800Z,4.60
2019-03-11T20:17:53.383Z,4.60
2019-03-11T20:20:23.152Z,4.40
2019-03-11T20:22:52.914Z,4.30
2019-03-11T20:25:25.089Z,4.20
2019-03-11T20:27:54.658Z,4.30
2019-03-11T20:30:24.631Z,4.20
2019-03-11T20:32:54.236Z,4.30
2019-03-11T20:35:23.971Z,4.40
2019-03-11T20:37:53.727Z,4.30
2019-03-11T20:40:24.202Z,4.30
2019-03-11T20:42:53.904Z,4.30
2019-03-11T20:45:23.493Z,4.40
2019-03-11T20:47:53.128Z,4.30
2019-03-11T20:50:22.626Z,4.20
2019-03-11T20:52:52.246Z,4.20
2019-03-11T20:55:21.741Z,4.40
2019-03-11T20:57:51.429Z,4.30
2019-03-11T21:00:21.197Z,4.30
2019-03-11T21:02:50.952Z,4.40
2019-03-11T21:05:23.191Z,4.40
2019-03-11T21:07:52.880Z,4.40
2019-03-11T21:10:22.465Z,4.40
2019-03-11T21:12:51.981Z,4.30
2019-03-11T21:15:22.608Z,4.30
2019-03-11T21:17:52.126Z,4.20
2019-03-11T21:20:21.844Z,4.20
2019-03-11T21:22:51.559Z,4.40
2019-03-11T21:25:21.302Z,4.50
2019-03-11T21:27:50.908Z,4.40
2019-03-11T21:30:21.240Z,4.40
2019-03-11T21:32:50.965Z,4.40
2019-03-11T21:35:21.379Z,4.40
2019-03-11T21:37:51.035Z,4.40
2019-03-11T21:40:20.686Z,4.40
2019-03-11T21:42:50.405Z,4.30
2019-03-11T21:45:32.930Z,4.20
2019-03-11T21:47:51.574Z,4.30
2019-03-11T21:50:21.810Z,4.30
2019-03-11T21:52:51.494Z,4.40
2019-03-11T21:55:21.096Z,4.50
2019-03-11T21:57:50.643Z,4.40
2019-03-11T22:00:32.957Z,4.40
2019-03-11T22:02:53.075Z,4.30
2019-03-11T22:05:23.556Z,4.20
2019-03-11T22:07:53.185Z,4.30
2019-03-11T22:10:22.901Z,4.40
2019-03-11T22:12:52.484Z,4.30
2019-03-11T22:15:22.046Z,4.40
2019-03-11T22:17:52.335Z,4.30
2019-03-11T22:20:21.970Z,4.30
2019-03-11T22:22:51.491Z,4.20
2019-03-11T22:25:21.168Z,4.30
2019-03-11T22:27:50.779Z,4.30
2019-03-11T22:30:20.712Z,4.40
2019-03-11T22:32:50.224Z,4.30
2019-03-11T22:35:20.925Z,4.20
2019-03-11T22:37:50.423Z,4.20
2019-03-11T22:40:20.474Z,4.20
2019-03-11T22:42:49.961Z,4.10
2019-03-11T22:45:21.588Z,4.20
2019-03-11T22:47:51.228Z,4.40
2019-03-11T22:50:20.739Z,4.40
2019-03-11T22:52:50.710Z,4.40
2019-03-11T22:55:20.332Z,4.30
2019-03-11T22:57:49.857Z,4.20
2019-03-11T23:00:35.491Z,4.30
2019-03-11T23:03:06.687Z,4.30
2019-03-11T23:05:36.281Z,4.40
2019-03-11T23:08:05.826Z,4.30
2019-03-11T23:10:35.323Z,4.30
2019-03-11T23:13:04.864Z,4.30
2019-03-11T23:15:34.410Z,4.30
2019-03-11T23:18:04.649Z,4.20
2019-03-11T23:20:34.159Z,4.20
2019-03-11T23:23:03.715Z,4.20
2019-03-11T23:25:33.214Z,4.20
2019-03-11T23:28:02.749Z,4.20
2019-03-11T23:30:32.903Z,4.30
2019-03-11T23:33:02.428Z,4.30
2019-03-11T23:35:32.065Z,4.40
2019-03-11T23:38:01.563Z,4.40
2019-03-11T23:40:31.078Z,4.30
2019-03-11T23:43:00.595Z,4.30
2019-03-11T23:45:30.150Z,4.30
2019-03-11T23:47:59.624Z,4.30
2019-03-11T23:50:29.127Z,4.30
2019-03-11T23:52:58.679Z,4.30
2019-03-11T23:55:28.185Z,4.30
2019-03-11T23:57:57.728Z,4.20
